sensor_id;sensor_type;location;lat;lon;timestamp;P1;durP1;ratioP1;P2;durP2;ratioP2
52067;SDS011;60237;52.338;21.228;2022-10-16T00:00:35;95.72;;;18.65;;
52067;SDS011;60237;52.338;21.228;2022-10-16T00:03:02;90.55;;;17.85;;
52067;SDS011;60237;52.338;21.228;2022-10-16T00:05:29;53.22;;;15.55;;
52067;SDS011;60237;52.338;21.228;2022-10-16T00:07:55;54.90;;;14.82;;
52067;SDS011;60237;52.338;21.228;2022-10-16T00:10:22;70.25;;;16.00;;
52067;SDS011;60237;52.338;21.228;2022-10-16T00:12:48;73.78;;;17.25;;
52067;SDS011;60237;52.338;21.228;2022-10-16T00:15:15;68.72;;;17.00;;
52067;SDS011;60237;52.338;21.228;2022-10-16T00:17:41;78.78;;;17.65;;
52067;SDS011;60237;52.338;21.228;2022-10-16T00:20:08;54.03;;;15.05;;
52067;SDS011;60237;52.338;21.228;2022-10-16T00:22:35;64.90;;;15.43;;
52067;SDS011;60237;52.338;21.228;2022-10-16T00:25:01;80.75;;;17.33;;
52067;SDS011;60237;52.338;21.228;2022-10-16T00:27:28;49.75;;;15.55;;
52067;SDS011;60237;52.338;21.228;2022-10-16T00:29:54;50.03;;;16.15;;
52067;SDS011;60237;52.338;21.228;2022-10-16T00:32:21;82.90;;;17.42;;
52067;SDS011;60237;52.338;21.228;2022-10-16T00:34:48;123.50;;;19.30;;
52067;SDS011;60237;52.338;21.228;2022-10-16T00:37:14;77.45;;;17.30;;
52067;SDS011;60237;52.338;21.228;2022-10-16T00:39:41;94.85;;;18.52;;
52067;SDS011;60237;52.338;21.228;2022-10-16T00:42:10;54.35;;;15.90;;
52067;SDS011;60237;52.338;21.228;2022-10-16T00:44:57;98.53;;;18.80;;
52067;SDS011;60237;52.338;21.228;2022-10-16T00:47:37;67.57;;;16.73;;
52067;SDS011;60237;52.338;21.228;2022-10-16T00:52:44;108.85;;;19.65;;
52067;SDS011;60237;52.338;21.228;2022-10-16T00:55:12;62.42;;;16.77;;
52067;SDS011;60237;52.338;21.228;2022-10-16T00:57:38;101.10;;;21.10;;
52067;SDS011;60237;52.338;21.228;2022-10-16T01:00:06;65.75;;;17.55;;
52067;SDS011;60237;52.338;21.228;2022-10-16T01:02:33;81.55;;;19.83;;
52067;SDS011;60237;52.338;21.228;2022-10-16T01:05:00;64.40;;;18.33;;
52067;SDS011;60237;52.338;21.228;2022-10-16T01:07:34;65.45;;;19.95;;
52067;SDS011;60237;52.338;21.228;2022-10-16T01:10:09;67.40;;;19.13;;
52067;SDS011;60237;52.338;21.228;2022-10-16T01:12:40;71.88;;;19.40;;
52067;SDS011;60237;52.338;21.228;2022-10-16T01:17:53;115.82;;;24.30;;
52067;SDS011;60237;52.338;21.228;2022-10-16T01:20:31;95.15;;;24.38;;
52067;SDS011;60237;52.338;21.228;2022-10-16T01:28:09;82.15;;;23.77;;
52067;SDS011;60237;52.338;21.228;2022-10-16T01:30:38;61.30;;;21.45;;
52067;SDS011;60237;52.338;21.228;2022-10-16T01:33:28;74.63;;;25.17;;
52067;SDS011;60237;52.338;21.228;2022-10-16T01:35:57;64.85;;;23.35;;
52067;SDS011;60237;52.338;21.228;2022-10-16T01:38:33;85.57;;;24.85;;
52067;SDS011;60237;52.338;21.228;2022-10-16T01:41:02;58.00;;;23.35;;
52067;SDS011;60237;52.338;21.228;2022-10-16T01:43:33;70.25;;;24.88;;
52067;SDS011;60237;52.338;21.228;2022-10-16T01:46:00;90.32;;;27.08;;
52067;SDS011;60237;52.338;21.228;2022-10-16T01:48:27;88.90;;;25.80;;
52067;SDS011;60237;52.338;21.228;2022-10-16T01:50:59;85.95;;;25.67;;
52067;SDS011;60237;52.338;21.228;2022-10-16T01:53:27;100.25;;;27.17;;
52067;SDS011;60237;52.338;21.228;2022-10-16T01:55:54;103.07;;;30.63;;
52067;SDS011;60237;52.338;21.228;2022-10-16T01:58:21;76.25;;;26.80;;
52067;SDS011;60237;52.338;21.228;2022-10-16T02:00:49;91.55;;;26.52;;
52067;SDS011;60237;52.338;21.228;2022-10-16T02:03:18;87.97;;;26.88;;
52067;SDS011;60237;52.338;21.228;2022-10-16T02:05:47;76.10;;;26.45;;
52067;SDS011;60237;52.338;21.228;2022-10-16T02:08:15;102.50;;;28.38;;
52067;SDS011;60237;52.338;21.228;2022-10-16T02:10:41;110.03;;;28.10;;
52067;SDS011;60237;52.338;21.228;2022-10-16T02:15:35;95.18;;;27.77;;
52067;SDS011;60237;52.338;21.228;2022-10-16T02:18:02;89.88;;;26.90;;
52067;SDS011;60237;52.338;21.228;2022-10-16T02:20:31;88.35;;;27.40;;
52067;SDS011;60237;52.338;21.228;2022-10-16T02:22:58;87.50;;;27.33;;
52067;SDS011;60237;52.338;21.228;2022-10-16T02:25:30;86.63;;;25.85;;
52067;SDS011;60237;52.338;21.228;2022-10-16T02:28:02;70.80;;;25.08;;
52067;SDS011;60237;52.338;21.228;2022-10-16T02:30:32;80.97;;;26.50;;
52067;SDS011;60237;52.338;21.228;2022-10-16T02:33:00;70.57;;;25.50;;
52067;SDS011;60237;52.338;21.228;2022-10-16T02:35:28;92.25;;;28.27;;
52067;SDS011;60237;52.338;21.228;2022-10-16T02:37:55;93.50;;;27.40;;
52067;SDS011;60237;52.338;21.228;2022-10-16T02:40:23;91.13;;;26.98;;
52067;SDS011;60237;52.338;21.228;2022-10-16T02:42:53;112.55;;;27.63;;
52067;SDS011;60237;52.338;21.228;2022-10-16T02:45:21;76.43;;;25.67;;
52067;SDS011;60237;52.338;21.228;2022-10-16T02:47:47;110.70;;;30.25;;
52067;SDS011;60237;52.338;21.228;2022-10-16T02:50:14;100.63;;;29.20;;
52067;SDS011;60237;52.338;21.228;2022-10-16T02:52:41;135.05;;;32.42;;
52067;SDS011;60237;52.338;21.228;2022-10-16T02:55:07;109.13;;;29.75;;
52067;SDS011;60237;52.338;21.228;2022-10-16T02:57:34;91.95;;;27.92;;
52067;SDS011;60237;52.338;21.228;2022-10-16T03:00:06;81.82;;;28.08;;
52067;SDS011;60237;52.338;21.228;2022-10-16T03:02:33;91.75;;;27.88;;
52067;SDS011;60237;52.338;21.228;2022-10-16T03:05:00;86.10;;;28.15;;
52067;SDS011;60237;52.338;21.228;2022-10-16T03:07:26;93.72;;;28.27;;
52067;SDS011;60237;52.338;21.228;2022-10-16T03:09:53;89.60;;;27.88;;
52067;SDS011;60237;52.338;21.228;2022-10-16T03:12:21;86.45;;;27.38;;
52067;SDS011;60237;52.338;21.228;2022-10-16T03:14:47;93.40;;;28.23;;
52067;SDS011;60237;52.338;21.228;2022-10-16T03:17:14;88.65;;;26.75;;
52067;SDS011;60237;52.338;21.228;2022-10-16T03:19:43;107.53;;;27.67;;
52067;SDS011;60237;52.338;21.228;2022-10-16T03:22:09;84.32;;;26.00;;
52067;SDS011;60237;52.338;21.228;2022-10-16T03:24:36;130.13;;;30.27;;
52067;SDS011;60237;52.338;21.228;2022-10-16T03:27:02;83.32;;;25.95;;
52067;SDS011;60237;52.338;21.228;2022-10-16T03:29:29;69.07;;;24.85;;
52067;SDS011;60237;52.338;21.228;2022-10-16T03:31:56;82.95;;;26.08;;
52067;SDS011;60237;52.338;21.228;2022-10-16T03:34:22;98.63;;;26.10;;
52067;SDS011;60237;52.338;21.228;2022-10-16T03:36:49;80.13;;;25.15;;
52067;SDS011;60237;52.338;21.228;2022-10-16T03:39:15;113.97;;;27.10;;
52067;SDS011;60237;52.338;21.228;2022-10-16T03:41:42;108.30;;;25.85;;
52067;SDS011;60237;52.338;21.228;2022-10-16T03:44:08;73.93;;;23.77;;
52067;SDS011;60237;52.338;21.228;2022-10-16T03:46:35;88.68;;;25.13;;
52067;SDS011;60237;52.338;21.228;2022-10-16T03:49:01;82.22;;;23.55;;
52067;SDS011;60237;52.338;21.228;2022-10-16T03:51:34;60.38;;;22.98;;
52067;SDS011;60237;52.338;21.228;2022-10-16T03:54:00;79.85;;;23.80;;
52067;SDS011;60237;52.338;21.228;2022-10-16T03:56:27;108.10;;;25.85;;
52067;SDS011;60237;52.338;21.228;2022-10-16T03:58:53;80.03;;;22.85;;
52067;SDS011;60237;52.338;21.228;2022-10-16T04:01:20;67.03;;;22.90;;
52067;SDS011;60237;52.338;21.228;2022-10-16T04:03:46;140.20;;;26.02;;
52067;SDS011;60237;52.338;21.228;2022-10-16T04:06:13;51.58;;;21.80;;
52067;SDS011;60237;52.338;21.228;2022-10-16T04:08:41;89.15;;;24.00;;
52067;SDS011;60237;52.338;21.228;2022-10-16T04:11:08;104.20;;;25.10;;
52067;SDS011;60237;52.338;21.228;2022-10-16T04:13:34;90.00;;;23.23;;
52067;SDS011;60237;52.338;21.228;2022-10-16T04:16:01;77.32;;;22.83;;
52067;SDS011;60237;52.338;21.228;2022-10-16T04:18:27;75.43;;;24.27;;
52067;SDS011;60237;52.338;21.228;2022-10-16T04:20:54;98.07;;;24.83;;
52067;SDS011;60237;52.338;21.228;2022-10-16T04:23:20;117.28;;;24.75;;
52067;SDS011;60237;52.338;21.228;2022-10-16T04:25:49;121.38;;;24.17;;
52067;SDS011;60237;52.338;21.228;2022-10-16T04:28:15;122.50;;;25.10;;
52067;SDS011;60237;52.338;21.228;2022-10-16T04:30:42;117.00;;;23.58;;
52067;SDS011;60237;52.338;21.228;2022-10-16T04:33:09;69.32;;;21.63;;
52067;SDS011;60237;52.338;21.228;2022-10-16T04:35:36;94.15;;;23.88;;
52067;SDS011;60237;52.338;21.228;2022-10-16T04:38:02;65.25;;;22.20;;
52067;SDS011;60237;52.338;21.228;2022-10-16T04:40:29;77.38;;;22.35;;
52067;SDS011;60237;52.338;21.228;2022-10-16T04:42:59;84.88;;;25.20;;
52067;SDS011;60237;52.338;21.228;2022-10-16T04:45:25;85.35;;;24.98;;
52067;SDS011;60237;52.338;21.228;2022-10-16T04:47:52;72.65;;;23.15;;
52067;SDS011;60237;52.338;21.228;2022-10-16T04:50:18;101.22;;;25.55;;
52067;SDS011;60237;52.338;21.228;2022-10-16T04:53:00;58.83;;;22.10;;
52067;SDS011;60237;52.338;21.228;2022-10-16T04:55:26;84.60;;;25.13;;
52067;SDS011;60237;52.338;21.228;2022-10-16T04:57:53;86.15;;;24.55;;
52067;SDS011;60237;52.338;21.228;2022-10-16T05:00:20;89.88;;;24.05;;
52067;SDS011;60237;52.338;21.228;2022-10-16T05:02:46;110.93;;;26.13;;
52067;SDS011;60237;52.338;21.228;2022-10-16T05:05:13;73.72;;;23.98;;
52067;SDS011;60237;52.338;21.228;2022-10-16T05:07:40;85.90;;;24.30;;
52067;SDS011;60237;52.338;21.228;2022-10-16T05:10:07;94.90;;;26.33;;
52067;SDS011;60237;52.338;21.228;2022-10-16T05:12:33;72.25;;;25.80;;
52067;SDS011;60237;52.338;21.228;2022-10-16T05:15:00;71.38;;;25.95;;
52067;SDS011;60237;52.338;21.228;2022-10-16T05:17:26;95.53;;;26.23;;
52067;SDS011;60237;52.338;21.228;2022-10-16T05:19:54;79.00;;;24.98;;
52067;SDS011;60237;52.338;21.228;2022-10-16T05:22:20;101.38;;;27.02;;
52067;SDS011;60237;52.338;21.228;2022-10-16T05:24:47;123.55;;;26.65;;
52067;SDS011;60237;52.338;21.228;2022-10-16T05:27:13;71.05;;;23.92;;
52067;SDS011;60237;52.338;21.228;2022-10-16T05:29:45;121.43;;;26.92;;
52067;SDS011;60237;52.338;21.228;2022-10-16T05:32:13;91.78;;;23.88;;
52067;SDS011;60237;52.338;21.228;2022-10-16T05:34:39;86.88;;;24.25;;
52067;SDS011;60237;52.338;21.228;2022-10-16T05:37:06;70.72;;;22.83;;
52067;SDS011;60237;52.338;21.228;2022-10-16T05:39:33;97.85;;;23.85;;
52067;SDS011;60237;52.338;21.228;2022-10-16T05:41:59;109.55;;;24.23;;
52067;SDS011;60237;52.338;21.228;2022-10-16T05:44:26;91.57;;;21.80;;
52067;SDS011;60237;52.338;21.228;2022-10-16T05:46:52;94.50;;;21.38;;
52067;SDS011;60237;52.338;21.228;2022-10-16T05:49:19;59.45;;;20.10;;
52067;SDS011;60237;52.338;21.228;2022-10-16T05:51:45;81.53;;;20.70;;
52067;SDS011;60237;52.338;21.228;2022-10-16T05:54:12;81.72;;;20.60;;
52067;SDS011;60237;52.338;21.228;2022-10-16T05:56:39;80.88;;;20.25;;
52067;SDS011;60237;52.338;21.228;2022-10-16T05:59:05;57.47;;;18.95;;
52067;SDS011;60237;52.338;21.228;2022-10-16T06:01:32;101.68;;;22.00;;
52067;SDS011;60237;52.338;21.228;2022-10-16T06:03:59;50.95;;;18.45;;
52067;SDS011;60237;52.338;21.228;2022-10-16T06:06:26;92.45;;;21.20;;
52067;SDS011;60237;52.338;21.228;2022-10-16T06:08:54;79.03;;;21.33;;
52067;SDS011;60237;52.338;21.228;2022-10-16T06:11:21;99.97;;;22.42;;
52067;SDS011;60237;52.338;21.228;2022-10-16T06:13:49;68.00;;;19.15;;
52067;SDS011;60237;52.338;21.228;2022-10-16T06:16:16;92.05;;;21.60;;
52067;SDS011;60237;52.338;21.228;2022-10-16T06:18:42;75.30;;;20.40;;
52067;SDS011;60237;52.338;21.228;2022-10-16T06:21:13;87.63;;;20.63;;
52067;SDS011;60237;52.338;21.228;2022-10-16T06:23:40;118.55;;;21.52;;
52067;SDS011;60237;52.338;21.228;2022-10-16T06:26:07;56.67;;;17.38;;
52067;SDS011;60237;52.338;21.228;2022-10-16T06:28:34;97.93;;;20.27;;
52067;SDS011;60237;52.338;21.228;2022-10-16T06:31:01;105.40;;;19.48;;
52067;SDS011;60237;52.338;21.228;2022-10-16T06:33:33;67.25;;;17.23;;
52067;SDS011;60237;52.338;21.228;2022-10-16T06:36:02;57.83;;;16.75;;
52067;SDS011;60237;52.338;21.228;2022-10-16T06:38:30;67.68;;;17.20;;
52067;SDS011;60237;52.338;21.228;2022-10-16T06:40:56;56.60;;;15.60;;
52067;SDS011;60237;52.338;21.228;2022-10-16T06:43:23;56.97;;;14.82;;
52067;SDS011;60237;52.338;21.228;2022-10-16T06:45:56;130.05;;;19.95;;
52067;SDS011;60237;52.338;21.228;2022-10-16T06:48:23;66.97;;;15.27;;
52067;SDS011;60237;52.338;21.228;2022-10-16T06:51:00;73.30;;;16.05;;
52067;SDS011;60237;52.338;21.228;2022-10-16T06:53:29;137.00;;;19.58;;
52067;SDS011;60237;52.338;21.228;2022-10-16T06:58:35;89.47;;;17.48;;
52067;SDS011;60237;52.338;21.228;2022-10-16T07:01:02;68.35;;;15.63;;
52067;SDS011;60237;52.338;21.228;2022-10-16T07:03:28;67.03;;;15.88;;
52067;SDS011;60237;52.338;21.228;2022-10-16T07:05:55;73.43;;;15.90;;
52067;SDS011;60237;52.338;21.228;2022-10-16T07:08:22;105.75;;;16.50;;
52067;SDS011;60237;52.338;21.228;2022-10-16T07:10:48;78.28;;;16.95;;
52067;SDS011;60237;52.338;21.228;2022-10-16T07:13:15;66.45;;;15.88;;
52067;SDS011;60237;52.338;21.228;2022-10-16T07:15:42;111.57;;;18.45;;
52067;SDS011;60237;52.338;21.228;2022-10-16T07:18:08;98.22;;;17.42;;
52067;SDS011;60237;52.338;21.228;2022-10-16T07:20:35;108.90;;;17.02;;
52067;SDS011;60237;52.338;21.228;2022-10-16T07:23:01;72.72;;;14.77;;
52067;SDS011;60237;52.338;21.228;2022-10-16T07:25:28;84.30;;;16.08;;
52067;SDS011;60237;52.338;21.228;2022-10-16T07:27:55;97.07;;;16.52;;
52067;SDS011;60237;52.338;21.228;2022-10-16T07:30:22;68.95;;;15.48;;
52067;SDS011;60237;52.338;21.228;2022-10-16T07:32:49;70.78;;;15.00;;
52067;SDS011;60237;52.338;21.228;2022-10-16T07:35:16;108.80;;;17.90;;
52067;SDS011;60237;52.338;21.228;2022-10-16T07:37:45;55.53;;;14.27;;
52067;SDS011;60237;52.338;21.228;2022-10-16T07:40:12;39.45;;;13.10;;
52067;SDS011;60237;52.338;21.228;2022-10-16T07:42:38;103.93;;;18.02;;
52067;SDS011;60237;52.338;21.228;2022-10-16T07:45:05;40.95;;;13.90;;
52067;SDS011;60237;52.338;21.228;2022-10-16T07:47:32;67.70;;;15.23;;
52067;SDS011;60237;52.338;21.228;2022-10-16T07:49:58;80.13;;;16.70;;
52067;SDS011;60237;52.338;21.228;2022-10-16T07:52:25;95.07;;;15.35;;
52067;SDS011;60237;52.338;21.228;2022-10-16T07:54:51;64.03;;;15.18;;
52067;SDS011;60237;52.338;21.228;2022-10-16T07:57:18;90.15;;;16.58;;
52067;SDS011;60237;52.338;21.228;2022-10-16T07:59:46;42.50;;;13.13;;
52067;SDS011;60237;52.338;21.228;2022-10-16T08:02:12;52.25;;;12.75;;
52067;SDS011;60237;52.338;21.228;2022-10-16T08:04:39;90.13;;;15.02;;
52067;SDS011;60237;52.338;21.228;2022-10-16T08:07:06;70.97;;;15.48;;
52067;SDS011;60237;52.338;21.228;2022-10-16T08:09:34;72.82;;;15.18;;
52067;SDS011;60237;52.338;21.228;2022-10-16T08:12:00;81.07;;;15.77;;
52067;SDS011;60237;52.338;21.228;2022-10-16T08:14:27;108.28;;;17.00;;
52067;SDS011;60237;52.338;21.228;2022-10-16T08:16:54;61.63;;;13.93;;
52067;SDS011;60237;52.338;21.228;2022-10-16T08:19:20;74.47;;;15.88;;
52067;SDS011;60237;52.338;21.228;2022-10-16T08:21:47;44.72;;;13.98;;
52067;SDS011;60237;52.338;21.228;2022-10-16T08:24:14;67.45;;;15.27;;
52067;SDS011;60237;52.338;21.228;2022-10-16T08:26:40;101.78;;;17.42;;
52067;SDS011;60237;52.338;21.228;2022-10-16T08:29:07;58.70;;;14.05;;
52067;SDS011;60237;52.338;21.228;2022-10-16T08:31:34;54.30;;;13.70;;
52067;SDS011;60237;52.338;21.228;2022-10-16T08:34:00;59.95;;;14.30;;
52067;SDS011;60237;52.338;21.228;2022-10-16T08:36:27;46.63;;;14.05;;
52067;SDS011;60237;52.338;21.228;2022-10-16T08:38:53;79.55;;;14.60;;
52067;SDS011;60237;52.338;21.228;2022-10-16T08:41:34;76.50;;;15.45;;
52067;SDS011;60237;52.338;21.228;2022-10-16T08:49:16;49.05;;;13.73;;
52067;SDS011;60237;52.338;21.228;2022-10-16T08:51:43;130.43;;;18.65;;
52067;SDS011;60237;52.338;21.228;2022-10-16T08:57:00;77.43;;;15.38;;
52067;SDS011;60237;52.338;21.228;2022-10-16T08:59:31;98.57;;;15.80;;
52067;SDS011;60237;52.338;21.228;2022-10-16T09:01:57;49.53;;;13.57;;
52067;SDS011;60237;52.338;21.228;2022-10-16T09:04:43;70.25;;;14.38;;
52067;SDS011;60237;52.338;21.228;2022-10-16T09:09:51;72.68;;;14.00;;
52067;SDS011;60237;52.338;21.228;2022-10-16T09:12:20;56.35;;;13.15;;
52067;SDS011;60237;52.338;21.228;2022-10-16T09:17:24;81.78;;;14.27;;
52067;SDS011;60237;52.338;21.228;2022-10-16T09:19:56;54.20;;;13.65;;
52067;SDS011;60237;52.338;21.228;2022-10-16T09:22:26;74.75;;;14.15;;
52067;SDS011;60237;52.338;21.228;2022-10-16T09:24:54;58.75;;;13.07;;
52067;SDS011;60237;52.338;21.228;2022-10-16T09:27:21;38.97;;;12.10;;
52067;SDS011;60237;52.338;21.228;2022-10-16T09:29:47;70.50;;;13.55;;
52067;SDS011;60237;52.338;21.228;2022-10-16T09:32:15;84.25;;;15.65;;
52067;SDS011;60237;52.338;21.228;2022-10-16T09:34:45;96.75;;;15.65;;
52067;SDS011;60237;52.338;21.228;2022-10-16T09:37:14;73.50;;;13.50;;
52067;SDS011;60237;52.338;21.228;2022-10-16T09:42:14;73.63;;;12.20;;
52067;SDS011;60237;52.338;21.228;2022-10-16T09:44:41;99.85;;;14.63;;
52067;SDS011;60237;52.338;21.228;2022-10-16T09:47:15;115.45;;;16.30;;
52067;SDS011;60237;52.338;21.228;2022-10-16T09:49:53;60.60;;;12.32;;
52067;SDS011;60237;52.338;21.228;2022-10-16T09:52:20;55.33;;;12.07;;
52067;SDS011;60237;52.338;21.228;2022-10-16T09:55:20;68.15;;;12.43;;
52067;SDS011;60237;52.338;21.228;2022-10-16T09:57:54;82.45;;;13.38;;
52067;SDS011;60237;52.338;21.228;2022-10-16T10:00:22;77.43;;;13.15;;
52067;SDS011;60237;52.338;21.228;2022-10-16T10:02:49;56.92;;;12.35;;
52067;SDS011;60237;52.338;21.228;2022-10-16T10:05:25;90.20;;;14.38;;
52067;SDS011;60237;52.338;21.228;2022-10-16T10:07:56;82.30;;;12.88;;
52067;SDS011;60237;52.338;21.228;2022-10-16T10:10:27;45.78;;;11.57;;
52067;SDS011;60237;52.338;21.228;2022-10-16T10:12:54;66.13;;;12.60;;
52067;SDS011;60237;52.338;21.228;2022-10-16T10:15:21;66.28;;;12.75;;
52067;SDS011;60237;52.338;21.228;2022-10-16T10:17:53;62.85;;;12.93;;
52067;SDS011;60237;52.338;21.228;2022-10-16T10:22:49;66.05;;;11.57;;
52067;SDS011;60237;52.338;21.228;2022-10-16T10:25:19;56.53;;;12.15;;
52067;SDS011;60237;52.338;21.228;2022-10-16T10:35:29;93.68;;;14.90;;
52067;SDS011;60237;52.338;21.228;2022-10-16T10:38:02;64.82;;;13.25;;
52067;SDS011;60237;52.338;21.228;2022-10-16T10:40:47;76.00;;;13.55;;
52067;SDS011;60237;52.338;21.228;2022-10-16T10:45:44;104.32;;;15.30;;
52067;SDS011;60237;52.338;21.228;2022-10-16T10:56:02;86.65;;;13.57;;
52067;SDS011;60237;52.338;21.228;2022-10-16T11:03:52;82.10;;;14.55;;
52067;SDS011;60237;52.338;21.228;2022-10-16T11:06:29;50.97;;;12.13;;
52067;SDS011;60237;52.338;21.228;2022-10-16T11:14:00;113.88;;;15.27;;
52067;SDS011;60237;52.338;21.228;2022-10-16T11:16:28;50.17;;;11.50;;
52067;SDS011;60237;52.338;21.228;2022-10-16T11:21:25;92.95;;;14.30;;
52067;SDS011;60237;52.338;21.228;2022-10-16T11:23:58;65.15;;;13.30;;
52067;SDS011;60237;52.338;21.228;2022-10-16T11:26:27;73.72;;;12.90;;
52067;SDS011;60237;52.338;21.228;2022-10-16T11:28:55;206.88;;;19.58;;
52067;SDS011;60237;52.338;21.228;2022-10-16T11:31:28;92.90;;;14.88;;
52067;SDS011;60237;52.338;21.228;2022-10-16T11:39:23;104.30;;;15.30;;
52067;SDS011;60237;52.338;21.228;2022-10-16T11:41:55;71.90;;;12.65;;
52067;SDS011;60237;52.338;21.228;2022-10-16T11:49:58;66.53;;;12.60;;
52067;SDS011;60237;52.338;21.228;2022-10-16T11:52:28;61.50;;;13.07;;
52067;SDS011;60237;52.338;21.228;2022-10-16T11:55:05;139.35;;;15.85;;
52067;SDS011;60237;52.338;21.228;2022-10-16T11:57:38;78.95;;;12.88;;
52067;SDS011;60237;52.338;21.228;2022-10-16T12:00:09;121.53;;;15.93;;
52067;SDS011;60237;52.338;21.228;2022-10-16T12:10:20;85.20;;;14.00;;
52067;SDS011;60237;52.338;21.228;2022-10-16T12:12:53;134.55;;;15.30;;
52067;SDS011;60237;52.338;21.228;2022-10-16T12:15:21;89.30;;;13.27;;
52067;SDS011;60237;52.338;21.228;2022-10-16T12:18:19;100.45;;;14.38;;
52067;SDS011;60237;52.338;21.228;2022-10-16T12:20:53;73.75;;;11.50;;
52067;SDS011;60237;52.338;21.228;2022-10-16T12:23:20;84.75;;;11.60;;
52067;SDS011;60237;52.338;21.228;2022-10-16T12:25:53;52.63;;;9.93;;
52067;SDS011;60237;52.338;21.228;2022-10-16T12:28:21;86.25;;;12.25;;
52067;SDS011;60237;52.338;21.228;2022-10-16T12:30:55;83.85;;;11.38;;
52067;SDS011;60237;52.338;21.228;2022-10-16T12:33:23;132.55;;;15.05;;
52067;SDS011;60237;52.338;21.228;2022-10-16T12:35:51;102.22;;;13.25;;
52067;SDS011;60237;52.338;21.228;2022-10-16T12:38:19;92.35;;;12.90;;
52067;SDS011;60237;52.338;21.228;2022-10-16T12:41:03;104.30;;;14.45;;
52067;SDS011;60237;52.338;21.228;2022-10-16T12:43:46;122.50;;;13.73;;
52067;SDS011;60237;52.338;21.228;2022-10-16T12:48:40;142.20;;;15.68;;
52067;SDS011;60237;52.338;21.228;2022-10-16T12:54:04;71.78;;;10.77;;
52067;SDS011;60237;52.338;21.228;2022-10-16T13:06:51;131.07;;;15.05;;
52067;SDS011;60237;52.338;21.228;2022-10-16T13:09:23;162.93;;;16.00;;
52067;SDS011;60237;52.338;21.228;2022-10-16T13:19:41;116.45;;;14.15;;
52067;SDS011;60237;52.338;21.228;2022-10-16T13:22:17;242.32;;;20.80;;
52067;SDS011;60237;52.338;21.228;2022-10-16T13:32:36;123.05;;;16.35;;
52067;SDS011;60237;52.338;21.228;2022-10-16T13:35:03;92.57;;;13.85;;
52067;SDS011;60237;52.338;21.228;2022-10-16T13:37:30;103.90;;;14.38;;
52067;SDS011;60237;52.338;21.228;2022-10-16T13:40:17;82.25;;;12.52;;
52067;SDS011;60237;52.338;21.228;2022-10-16T13:42:45;143.63;;;16.77;;
52067;SDS011;60237;52.338;21.228;2022-10-16T13:45:22;87.65;;;13.20;;
52067;SDS011;60237;52.338;21.228;2022-10-16T13:47:49;86.35;;;13.00;;
52067;SDS011;60237;52.338;21.228;2022-10-16T13:50:16;67.25;;;12.75;;
52067;SDS011;60237;52.338;21.228;2022-10-16T13:52:43;116.28;;;14.93;;
52067;SDS011;60237;52.338;21.228;2022-10-16T13:55:14;173.10;;;18.25;;
52067;SDS011;60237;52.338;21.228;2022-10-16T13:57:41;153.10;;;16.48;;
52067;SDS011;60237;52.338;21.228;2022-10-16T14:00:21;242.13;;;21.92;;
52067;SDS011;60237;52.338;21.228;2022-10-16T14:02:55;167.77;;;18.02;;
52067;SDS011;60237;52.338;21.228;2022-10-16T14:05:24;106.15;;;16.05;;
52067;SDS011;60237;52.338;21.228;2022-10-16T14:07:50;78.93;;;13.68;;
52067;SDS011;60237;52.338;21.228;2022-10-16T14:10:20;138.43;;;19.13;;
52067;SDS011;60237;52.338;21.228;2022-10-16T14:12:58;222.63;;;23.67;;
52067;SDS011;60237;52.338;21.228;2022-10-16T14:15:25;123.72;;;20.65;;
52067;SDS011;60237;52.338;21.228;2022-10-16T14:17:52;112.75;;;18.13;;
52067;SDS011;60237;52.338;21.228;2022-10-16T14:20:20;106.25;;;16.42;;
52067;SDS011;60237;52.338;21.228;2022-10-16T14:22:46;147.57;;;18.48;;
52067;SDS011;60237;52.338;21.228;2022-10-16T14:25:25;132.98;;;17.67;;
52067;SDS011;60237;52.338;21.228;2022-10-16T14:28:02;117.80;;;17.05;;
52067;SDS011;60237;52.338;21.228;2022-10-16T14:30:30;220.30;;;23.80;;
52067;SDS011;60237;52.338;21.228;2022-10-16T14:32:59;154.38;;;20.02;;
52067;SDS011;60237;52.338;21.228;2022-10-16T14:37:53;185.77;;;23.20;;
52067;SDS011;60237;52.338;21.228;2022-10-16T14:40:20;175.73;;;23.42;;
52067;SDS011;60237;52.338;21.228;2022-10-16T14:42:48;159.48;;;19.42;;
52067;SDS011;60237;52.338;21.228;2022-10-16T14:45:18;134.45;;;20.05;;
52067;SDS011;60237;52.338;21.228;2022-10-16T14:48:16;110.97;;;19.50;;
52067;SDS011;60237;52.338;21.228;2022-10-16T14:50:32;138.93;;;19.60;;
52067;SDS011;60237;52.338;21.228;2022-10-16T14:52:59;69.70;;;15.15;;
52067;SDS011;60237;52.338;21.228;2022-10-16T14:55:25;96.43;;;17.90;;
52067;SDS011;60237;52.338;21.228;2022-10-16T14:57:52;97.10;;;18.85;;
52067;SDS011;60237;52.338;21.228;2022-10-16T15:00:25;102.97;;;19.58;;
52067;SDS011;60237;52.338;21.228;2022-10-16T15:02:52;129.05;;;20.88;;
52067;SDS011;60237;52.338;21.228;2022-10-16T15:05:20;233.63;;;24.98;;
52067;SDS011;60237;52.338;21.228;2022-10-16T15:07:47;120.97;;;19.27;;
52067;SDS011;60237;52.338;21.228;2022-10-16T15:10:15;156.57;;;19.63;;
52067;SDS011;60237;52.338;21.228;2022-10-16T15:12:42;239.43;;;24.13;;
52067;SDS011;60237;52.338;21.228;2022-10-16T15:15:15;98.60;;;14.77;;
52067;SDS011;60237;52.338;21.228;2022-10-16T15:17:46;85.38;;;14.57;;
52067;SDS011;60237;52.338;21.228;2022-10-16T15:20:13;188.23;;;19.02;;
52067;SDS011;60237;52.338;21.228;2022-10-16T15:22:39;138.35;;;17.10;;
52067;SDS011;60237;52.338;21.228;2022-10-16T15:27:44;134.88;;;16.48;;
52067;SDS011;60237;52.338;21.228;2022-10-16T15:30:11;162.20;;;18.33;;
52067;SDS011;60237;52.338;21.228;2022-10-16T15:32:37;166.57;;;19.52;;
52067;SDS011;60237;52.338;21.228;2022-10-16T15:35:04;113.28;;;17.30;;
52067;SDS011;60237;52.338;21.228;2022-10-16T15:37:31;115.10;;;19.10;;
52067;SDS011;60237;52.338;21.228;2022-10-16T15:39:57;94.35;;;17.75;;
52067;SDS011;60237;52.338;21.228;2022-10-16T15:42:24;80.45;;;15.70;;
52067;SDS011;60237;52.338;21.228;2022-10-16T15:44:51;145.88;;;17.75;;
52067;SDS011;60237;52.338;21.228;2022-10-16T15:47:17;145.32;;;19.15;;
52067;SDS011;60237;52.338;21.228;2022-10-16T15:49:44;116.00;;;17.42;;
52067;SDS011;60237;52.338;21.228;2022-10-16T15:52:10;94.38;;;17.25;;
52067;SDS011;60237;52.338;21.228;2022-10-16T15:54:37;135.38;;;19.85;;
52067;SDS011;60237;52.338;21.228;2022-10-16T15:57:04;140.18;;;19.85;;
52067;SDS011;60237;52.338;21.228;2022-10-16T15:59:30;119.47;;;23.00;;
52067;SDS011;60237;52.338;21.228;2022-10-16T16:01:57;97.22;;;20.92;;
52067;SDS011;60237;52.338;21.228;2022-10-16T16:04:23;125.15;;;24.10;;
52067;SDS011;60237;52.338;21.228;2022-10-16T16:07:09;108.70;;;22.17;;
52067;SDS011;60237;52.338;21.228;2022-10-16T16:09:36;152.45;;;26.58;;
52067;SDS011;60237;52.338;21.228;2022-10-16T16:12:02;122.68;;;24.55;;
52067;SDS011;60237;52.338;21.228;2022-10-16T16:14:29;144.07;;;25.17;;